Terminal Aerodrome Forecast
Issued by NWS

Home | Current Version | Previous Version | Graphics & Text | Print | Product List | Glossary On
Versions: 1 2 3 4 5 6 7 8 9 10 11 12 13 14 15 16 17 18 19 20 21
000
FTUS43 KGRB 231811 AAA
TAFCWA
TAF AMD
KCWA 231811Z 2318/2418 08009KT P6SM SCT150
     FM240900 11005KT P6SM BKN035
     FM241400 11005KT P6SM OVC015
     FM241700 14008KT P6SM BKN030=

USA.gov is the U.S. government's official web portal to all federal, state and local government web resources and services.